sensor_id;sensor_type;location;lat;lon;timestamp;P1;durP1;ratioP1;P2;durP2;ratioP2
71759;SDS011;59919;48.112;16.280;2023-02-13T00:00:48;7.32;;;5.53;;
71759;SDS011;59919;48.112;16.280;2023-02-13T00:03:19;6.43;;;5.22;;
71759;SDS011;59919;48.112;16.280;2023-02-13T00:05:50;7.70;;;6.15;;
71759;SDS011;59919;48.112;16.280;2023-02-13T00:08:21;6.72;;;5.32;;
71759;SDS011;59919;48.112;16.280;2023-02-13T00:10:52;6.82;;;5.57;;
71759;SDS011;59919;48.112;16.280;2023-02-13T00:13:23;7.45;;;5.93;;
71759;SDS011;59919;48.112;16.280;2023-02-13T00:15:58;7.40;;;5.50;;
71759;SDS011;59919;48.112;16.280;2023-02-13T00:18:32;7.90;;;5.40;;
71759;SDS011;59919;48.112;16.280;2023-02-13T00:23:47;7.47;;;5.40;;
71759;SDS011;59919;48.112;16.280;2023-02-13T00:26:23;7.72;;;5.50;;
71759;SDS011;59919;48.112;16.280;2023-02-13T00:28:55;7.68;;;5.95;;
71759;SDS011;59919;48.112;16.280;2023-02-13T00:31:28;9.10;;;6.05;;
71759;SDS011;59919;48.112;16.280;2023-02-13T00:33:59;7.88;;;5.65;;
71759;SDS011;59919;48.112;16.280;2023-02-13T00:36:30;6.75;;;5.68;;
71759;SDS011;59919;48.112;16.280;2023-02-13T00:39:02;6.43;;;5.43;;
71759;SDS011;59919;48.112;16.280;2023-02-13T00:41:33;7.35;;;5.72;;
71759;SDS011;59919;48.112;16.280;2023-02-13T00:44:04;8.00;;;6.00;;
71759;SDS011;59919;48.112;16.280;2023-02-13T00:46:35;7.72;;;6.00;;
71759;SDS011;59919;48.112;16.280;2023-02-13T00:49:08;7.93;;;6.07;;
71759;SDS011;59919;48.112;16.280;2023-02-13T00:51:39;7.78;;;6.05;;
71759;SDS011;59919;48.112;16.280;2023-02-13T00:54:12;7.57;;;5.80;;
71759;SDS011;59919;48.112;16.280;2023-02-13T00:56:43;8.25;;;6.45;;
71759;SDS011;59919;48.112;16.280;2023-02-13T00:59:17;8.43;;;6.35;;
71759;SDS011;59919;48.112;16.280;2023-02-13T01:01:48;8.77;;;6.25;;
71759;SDS011;59919;48.112;16.280;2023-02-13T01:04:21;7.43;;;5.82;;
71759;SDS011;59919;48.112;16.280;2023-02-13T01:06:52;8.65;;;6.53;;
71759;SDS011;59919;48.112;16.280;2023-02-13T01:09:26;8.70;;;6.53;;
71759;SDS011;59919;48.112;16.280;2023-02-13T01:12:00;8.68;;;5.90;;
71759;SDS011;59919;48.112;16.280;2023-02-13T01:14:31;8.10;;;6.00;;
71759;SDS011;59919;48.112;16.280;2023-02-13T01:17:02;8.32;;;6.35;;
71759;SDS011;59919;48.112;16.280;2023-02-13T01:19:33;8.52;;;6.72;;
71759;SDS011;59919;48.112;16.280;2023-02-13T01:22:07;7.60;;;6.00;;
71759;SDS011;59919;48.112;16.280;2023-02-13T01:24:38;7.50;;;6.05;;
71759;SDS011;59919;48.112;16.280;2023-02-13T01:27:09;8.77;;;6.25;;
71759;SDS011;59919;48.112;16.280;2023-02-13T01:29:40;9.93;;;6.15;;
71759;SDS011;59919;48.112;16.280;2023-02-13T01:32:14;9.68;;;6.78;;
71759;SDS011;59919;48.112;16.280;2023-02-13T01:34:45;7.90;;;6.40;;
71759;SDS011;59919;48.112;16.280;2023-02-13T01:37:17;7.45;;;5.78;;
71759;SDS011;59919;48.112;16.280;2023-02-13T01:39:48;8.90;;;6.35;;
71759;SDS011;59919;48.112;16.280;2023-02-13T01:42:25;6.82;;;5.70;;
71759;SDS011;59919;48.112;16.280;2023-02-13T01:45:02;7.22;;;5.95;;
71759;SDS011;59919;48.112;16.280;2023-02-13T01:47:40;8.63;;;6.68;;
71759;SDS011;59919;48.112;16.280;2023-02-13T01:59:01;7.93;;;6.30;;
71759;SDS011;59919;48.112;16.280;2023-02-13T02:01:36;9.02;;;6.18;;
71759;SDS011;59919;48.112;16.280;2023-02-13T02:07:06;8.32;;;6.13;;
71759;SDS011;59919;48.112;16.280;2023-02-13T02:09:41;8.32;;;6.25;;
71759;SDS011;59919;48.112;16.280;2023-02-13T02:12:25;9.48;;;6.57;;
71759;SDS011;59919;48.112;16.280;2023-02-13T02:15:17;8.63;;;6.05;;
71759;SDS011;59919;48.112;16.280;2023-02-13T02:17:49;7.57;;;5.63;;
71759;SDS011;59919;48.112;16.280;2023-02-13T02:20:34;8.98;;;6.50;;
71759;SDS011;59919;48.112;16.280;2023-02-13T02:37:29;7.00;;;5.78;;
71759;SDS011;59919;48.112;16.280;2023-02-13T02:40:32;7.43;;;5.97;;
71759;SDS011;59919;48.112;16.280;2023-02-13T02:43:31;7.35;;;5.90;;
71759;SDS011;59919;48.112;16.280;2023-02-13T02:46:31;8.57;;;6.18;;
71759;SDS011;59919;48.112;16.280;2023-02-13T02:49:32;7.43;;;5.45;;
71759;SDS011;59919;48.112;16.280;2023-02-13T02:52:39;6.95;;;6.03;;
71759;SDS011;59919;48.112;16.280;2023-02-13T02:58:32;7.38;;;5.53;;
71759;SDS011;59919;48.112;16.280;2023-02-13T03:01:57;7.45;;;5.30;;
71759;SDS011;59919;48.112;16.280;2023-02-13T03:04:50;7.55;;;5.70;;
71759;SDS011;59919;48.112;16.280;2023-02-13T03:07:42;7.88;;;6.00;;
71759;SDS011;59919;48.112;16.280;2023-02-13T03:10:16;7.03;;;5.50;;
71759;SDS011;59919;48.112;16.280;2023-02-13T03:13:16;7.60;;;5.72;;
71759;SDS011;59919;48.112;16.280;2023-02-13T03:15:59;7.38;;;5.47;;
71759;SDS011;59919;48.112;16.280;2023-02-13T03:18:50;8.30;;;5.40;;
71759;SDS011;59919;48.112;16.280;2023-02-13T03:21:49;6.55;;;5.07;;
71759;SDS011;59919;48.112;16.280;2023-02-13T03:27:42;6.55;;;5.05;;
71759;SDS011;59919;48.112;16.280;2023-02-13T03:45:13;6.45;;;5.20;;
71759;SDS011;59919;48.112;16.280;2023-02-13T03:48:16;6.75;;;4.90;;
71759;SDS011;59919;48.112;16.280;2023-02-13T03:51:11;7.45;;;5.07;;
71759;SDS011;59919;48.112;16.280;2023-02-13T03:54:01;6.10;;;4.70;;
71759;SDS011;59919;48.112;16.280;2023-02-13T03:56:38;6.18;;;4.80;;
71759;SDS011;59919;48.112;16.280;2023-02-13T03:59:30;6.00;;;4.78;;
71759;SDS011;59919;48.112;16.280;2023-02-13T04:04:59;6.05;;;4.82;;
71759;SDS011;59919;48.112;16.280;2023-02-13T04:07:45;5.60;;;4.40;;
71759;SDS011;59919;48.112;16.280;2023-02-13T04:10:19;5.55;;;4.10;;
71759;SDS011;59919;48.112;16.280;2023-02-13T04:12:59;5.78;;;4.40;;
71759;SDS011;59919;48.112;16.280;2023-02-13T04:15:49;6.32;;;4.72;;
71759;SDS011;59919;48.112;16.280;2023-02-13T04:18:29;5.72;;;4.63;;
71759;SDS011;59919;48.112;16.280;2023-02-13T04:21:02;7.25;;;4.80;;
71759;SDS011;59919;48.112;16.280;2023-02-13T04:23:34;6.20;;;4.25;;
71759;SDS011;59919;48.112;16.280;2023-02-13T04:26:07;6.30;;;4.10;;
71759;SDS011;59919;48.112;16.280;2023-02-13T04:31:14;4.80;;;4.00;;
71759;SDS011;59919;48.112;16.280;2023-02-13T04:33:45;6.57;;;4.20;;
71759;SDS011;59919;48.112;16.280;2023-02-13T04:36:17;4.88;;;3.60;;
71759;SDS011;59919;48.112;16.280;2023-02-13T04:38:50;6.25;;;4.43;;
71759;SDS011;59919;48.112;16.280;2023-02-13T04:41:21;6.03;;;4.32;;
71759;SDS011;59919;48.112;16.280;2023-02-13T04:43:52;5.20;;;3.88;;
71759;SDS011;59919;48.112;16.280;2023-02-13T04:46:23;6.30;;;4.00;;
71759;SDS011;59919;48.112;16.280;2023-02-13T04:48:57;4.90;;;3.90;;
71759;SDS011;59919;48.112;16.280;2023-02-13T04:51:28;5.22;;;3.92;;
71759;SDS011;59919;48.112;16.280;2023-02-13T04:53:59;4.90;;;4.20;;
71759;SDS011;59919;48.112;16.280;2023-02-13T04:56:30;5.47;;;4.07;;
71759;SDS011;59919;48.112;16.280;2023-02-13T04:59:01;4.32;;;3.40;;
71759;SDS011;59919;48.112;16.280;2023-02-13T05:01:32;5.45;;;4.03;;
71759;SDS011;59919;48.112;16.280;2023-02-13T05:04:03;5.18;;;4.03;;
71759;SDS011;59919;48.112;16.280;2023-02-13T05:06:35;6.03;;;3.90;;
71759;SDS011;59919;48.112;16.280;2023-02-13T05:09:06;4.95;;;3.72;;
71759;SDS011;59919;48.112;16.280;2023-02-13T05:11:40;5.20;;;3.88;;
71759;SDS011;59919;48.112;16.280;2023-02-13T05:14:14;5.28;;;3.72;;
71759;SDS011;59919;48.112;16.280;2023-02-13T05:16:52;5.60;;;4.18;;
71759;SDS011;59919;48.112;16.280;2023-02-13T05:19:23;4.50;;;3.38;;
71759;SDS011;59919;48.112;16.280;2023-02-13T05:21:54;4.45;;;3.65;;
71759;SDS011;59919;48.112;16.280;2023-02-13T05:24:44;4.18;;;3.20;;
71759;SDS011;59919;48.112;16.280;2023-02-13T05:27:15;4.88;;;3.83;;
71759;SDS011;59919;48.112;16.280;2023-02-13T05:29:49;4.00;;;3.15;;
71759;SDS011;59919;48.112;16.280;2023-02-13T05:32:22;4.20;;;3.20;;
71759;SDS011;59919;48.112;16.280;2023-02-13T05:34:53;4.88;;;3.40;;
71759;SDS011;59919;48.112;16.280;2023-02-13T05:37:24;5.30;;;3.40;;
71759;SDS011;59919;48.112;16.280;2023-02-13T05:39:58;4.50;;;3.70;;
71759;SDS011;59919;48.112;16.280;2023-02-13T05:42:29;4.25;;;3.30;;
71759;SDS011;59919;48.112;16.280;2023-02-13T05:45:03;5.97;;;3.40;;
71759;SDS011;59919;48.112;16.280;2023-02-13T05:47:34;3.55;;;3.10;;
71759;SDS011;59919;48.112;16.280;2023-02-13T05:50:06;9.52;;;3.00;;
71759;SDS011;59919;48.112;16.280;2023-02-13T05:52:39;4.60;;;2.83;;
71759;SDS011;59919;48.112;16.280;2023-02-13T05:55:12;3.72;;;2.88;;
71759;SDS011;59919;48.112;16.280;2023-02-13T05:57:43;4.65;;;3.10;;
71759;SDS011;59919;48.112;16.280;2023-02-13T06:00:14;3.35;;;2.78;;
71759;SDS011;59919;48.112;16.280;2023-02-13T06:02:49;3.33;;;2.88;;
71759;SDS011;59919;48.112;16.280;2023-02-13T06:05:20;5.32;;;2.88;;
71759;SDS011;59919;48.112;16.280;2023-02-13T06:07:54;7.95;;;2.70;;
71759;SDS011;59919;48.112;16.280;2023-02-13T06:10:28;5.07;;;2.15;;
71759;SDS011;59919;48.112;16.280;2023-02-13T06:12:59;3.20;;;2.40;;
71759;SDS011;59919;48.112;16.280;2023-02-13T06:15:30;4.88;;;2.28;;
71759;SDS011;59919;48.112;16.280;2023-02-13T06:18:05;7.20;;;2.80;;
71759;SDS011;59919;48.112;16.280;2023-02-13T06:20:36;6.30;;;2.50;;
71759;SDS011;59919;48.112;16.280;2023-02-13T06:23:07;3.72;;;2.30;;
71759;SDS011;59919;48.112;16.280;2023-02-13T06:25:41;4.63;;;2.20;;
71759;SDS011;59919;48.112;16.280;2023-02-13T06:28:12;2.72;;;2.15;;
71759;SDS011;59919;48.112;16.280;2023-02-13T06:30:46;5.65;;;2.47;;
71759;SDS011;59919;48.112;16.280;2023-02-13T06:33:21;5.80;;;2.45;;
71759;SDS011;59919;48.112;16.280;2023-02-13T06:35:54;4.40;;;2.15;;
71759;SDS011;59919;48.112;16.280;2023-02-13T06:38:25;4.88;;;2.35;;
71759;SDS011;59919;48.112;16.280;2023-02-13T06:41:02;3.97;;;2.25;;
71759;SDS011;59919;48.112;16.280;2023-02-13T06:43:33;3.42;;;2.15;;
71759;SDS011;59919;48.112;16.280;2023-02-13T06:46:05;3.92;;;2.55;;
71759;SDS011;59919;48.112;16.280;2023-02-13T06:48:37;2.67;;;1.90;;
71759;SDS011;59919;48.112;16.280;2023-02-13T06:51:08;4.43;;;2.22;;
71759;SDS011;59919;48.112;16.280;2023-02-13T06:53:39;2.78;;;2.17;;
71759;SDS011;59919;48.112;16.280;2023-02-13T06:56:10;2.58;;;1.80;;
71759;SDS011;59919;48.112;16.280;2023-02-13T06:58:44;2.72;;;2.10;;
71759;SDS011;59919;48.112;16.280;2023-02-13T07:01:18;2.47;;;1.92;;
71759;SDS011;59919;48.112;16.280;2023-02-13T07:03:52;3.38;;;2.20;;
71759;SDS011;59919;48.112;16.280;2023-02-13T07:06:23;4.05;;;2.63;;
71759;SDS011;59919;48.112;16.280;2023-02-13T07:08:54;3.50;;;2.25;;
71759;SDS011;59919;48.112;16.280;2023-02-13T07:11:25;3.78;;;2.22;;
71759;SDS011;59919;48.112;16.280;2023-02-13T07:13:57;2.40;;;2.10;;
71759;SDS011;59919;48.112;16.280;2023-02-13T07:16:28;2.78;;;2.10;;
71759;SDS011;59919;48.112;16.280;2023-02-13T07:18:59;3.42;;;2.50;;
71759;SDS011;59919;48.112;16.280;2023-02-13T07:21:36;3.97;;;2.40;;
71759;SDS011;59919;48.112;16.280;2023-02-13T07:24:07;2.65;;;2.13;;
71759;SDS011;59919;48.112;16.280;2023-02-13T07:26:38;4.07;;;2.22;;
71759;SDS011;59919;48.112;16.280;2023-02-13T07:29:10;3.10;;;1.95;;
71759;SDS011;59919;48.112;16.280;2023-02-13T07:31:40;2.53;;;2.08;;
71759;SDS011;59919;48.112;16.280;2023-02-13T07:34:12;3.92;;;2.38;;
71759;SDS011;59919;48.112;16.280;2023-02-13T07:36:43;2.10;;;1.90;;
71759;SDS011;59919;48.112;16.280;2023-02-13T07:39:14;2.72;;;2.08;;
71759;SDS011;59919;48.112;16.280;2023-02-13T07:41:45;3.22;;;2.30;;
71759;SDS011;59919;48.112;16.280;2023-02-13T07:44:16;4.18;;;2.10;;
71759;SDS011;59919;48.112;16.280;2023-02-13T07:46:48;2.63;;;2.08;;
71759;SDS011;59919;48.112;16.280;2023-02-13T07:49:19;2.22;;;2.03;;
71759;SDS011;59919;48.112;16.280;2023-02-13T07:51:54;3.65;;;2.50;;
71759;SDS011;59919;48.112;16.280;2023-02-13T07:54:28;3.45;;;2.47;;
71759;SDS011;59919;48.112;16.280;2023-02-13T07:56:59;2.50;;;2.05;;
71759;SDS011;59919;48.112;16.280;2023-02-13T07:59:30;3.88;;;2.15;;
71759;SDS011;59919;48.112;16.280;2023-02-13T08:02:03;3.58;;;2.15;;
71759;SDS011;59919;48.112;16.280;2023-02-13T08:04:36;3.83;;;2.58;;
71759;SDS011;59919;48.112;16.280;2023-02-13T08:07:10;3.83;;;2.28;;
71759;SDS011;59919;48.112;16.280;2023-02-13T08:12:36;3.50;;;2.47;;
71759;SDS011;59919;48.112;16.280;2023-02-13T08:15:11;3.10;;;2.22;;
71759;SDS011;59919;48.112;16.280;2023-02-13T08:17:43;3.58;;;2.38;;
71759;SDS011;59919;48.112;16.280;2023-02-13T08:20:14;3.17;;;1.98;;
71759;SDS011;59919;48.112;16.280;2023-02-13T08:22:45;2.28;;;2.00;;
71759;SDS011;59919;48.112;16.280;2023-02-13T08:25:16;4.35;;;2.03;;
71759;SDS011;59919;48.112;16.280;2023-02-13T08:27:49;5.63;;;2.50;;
71759;SDS011;59919;48.112;16.280;2023-02-13T08:30:22;2.60;;;2.20;;
71759;SDS011;59919;48.112;16.280;2023-02-13T08:32:56;8.43;;;2.05;;
71759;SDS011;59919;48.112;16.280;2023-02-13T08:35:30;2.67;;;2.15;;
71759;SDS011;59919;48.112;16.280;2023-02-13T08:38:04;2.53;;;2.20;;
71759;SDS011;59919;48.112;16.280;2023-02-13T08:40:35;3.13;;;1.95;;
71759;SDS011;59919;48.112;16.280;2023-02-13T08:43:06;3.72;;;2.40;;
71759;SDS011;59919;48.112;16.280;2023-02-13T08:45:38;2.78;;;2.05;;
71759;SDS011;59919;48.112;16.280;2023-02-13T08:48:09;4.97;;;2.13;;
71759;SDS011;59919;48.112;16.280;2023-02-13T08:50:42;4.88;;;2.40;;
71759;SDS011;59919;48.112;16.280;2023-02-13T08:53:16;2.38;;;1.67;;
71759;SDS011;59919;48.112;16.280;2023-02-13T08:55:53;3.22;;;2.20;;
71759;SDS011;59919;48.112;16.280;2023-02-13T08:58:26;2.78;;;1.83;;
71759;SDS011;59919;48.112;16.280;2023-02-13T09:00:57;4.22;;;2.25;;
71759;SDS011;59919;48.112;16.280;2023-02-13T09:03:28;4.00;;;2.15;;
71759;SDS011;59919;48.112;16.280;2023-02-13T09:06:00;3.65;;;2.20;;
71759;SDS011;59919;48.112;16.280;2023-02-13T09:08:33;2.88;;;2.25;;
71759;SDS011;59919;48.112;16.280;2023-02-13T09:11:05;4.68;;;2.30;;
71759;SDS011;59919;48.112;16.280;2023-02-13T09:13:36;3.38;;;2.30;;
71759;SDS011;59919;48.112;16.280;2023-02-13T09:16:09;3.00;;;2.30;;
71759;SDS011;59919;48.112;16.280;2023-02-13T09:18:40;4.50;;;2.42;;
71759;SDS011;59919;48.112;16.280;2023-02-13T09:21:16;3.28;;;1.95;;
71759;SDS011;59919;48.112;16.280;2023-02-13T09:23:49;6.32;;;2.72;;
71759;SDS011;59919;48.112;16.280;2023-02-13T09:26:23;3.88;;;2.30;;
71759;SDS011;59919;48.112;16.280;2023-02-13T09:28:54;3.55;;;2.70;;
71759;SDS011;59919;48.112;16.280;2023-02-13T09:31:25;3.72;;;2.60;;
71759;SDS011;59919;48.112;16.280;2023-02-13T09:33:56;4.18;;;2.63;;
71759;SDS011;59919;48.112;16.280;2023-02-13T09:36:27;6.68;;;2.30;;
71759;SDS011;59919;48.112;16.280;2023-02-13T09:39:01;4.25;;;2.70;;
71759;SDS011;59919;48.112;16.280;2023-02-13T09:41:35;3.03;;;2.38;;
71759;SDS011;59919;48.112;16.280;2023-02-13T09:44:17;2.80;;;2.25;;
71759;SDS011;59919;48.112;16.280;2023-02-13T09:52:44;3.33;;;2.65;;
71759;SDS011;59919;48.112;16.280;2023-02-13T09:55:17;4.43;;;2.35;;
71759;SDS011;59919;48.112;16.280;2023-02-13T10:00:43;7.35;;;2.53;;
71759;SDS011;59919;48.112;16.280;2023-02-13T10:03:23;7.40;;;2.17;;
71759;SDS011;59919;48.112;16.280;2023-02-13T10:06:14;3.30;;;2.40;;
71759;SDS011;59919;48.112;16.280;2023-02-13T10:14:37;5.35;;;2.80;;
71759;SDS011;59919;48.112;16.280;2023-02-13T10:23:17;3.20;;;2.47;;
71759;SDS011;59919;48.112;16.280;2023-02-13T10:25:59;4.47;;;2.15;;
71759;SDS011;59919;48.112;16.280;2023-02-13T10:31:12;5.07;;;2.70;;
71759;SDS011;59919;48.112;16.280;2023-02-13T10:36:21;3.95;;;2.22;;
71759;SDS011;59919;48.112;16.280;2023-02-13T10:38:59;3.63;;;2.58;;
71759;SDS011;59919;48.112;16.280;2023-02-13T10:41:52;3.33;;;2.05;;
71759;SDS011;59919;48.112;16.280;2023-02-13T10:44:35;4.63;;;2.33;;
71759;SDS011;59919;48.112;16.280;2023-02-13T10:50:19;3.85;;;2.25;;
71759;SDS011;59919;48.112;16.280;2023-02-13T10:56:36;3.63;;;1.98;;
71759;SDS011;59919;48.112;16.280;2023-02-13T11:02:02;3.25;;;2.20;;
71759;SDS011;59919;48.112;16.280;2023-02-13T11:04:56;3.78;;;2.17;;
71759;SDS011;59919;48.112;16.280;2023-02-13T11:07:30;4.05;;;2.83;;
71759;SDS011;59919;48.112;16.280;2023-02-13T11:10:04;3.90;;;2.28;;
71759;SDS011;59919;48.112;16.280;2023-02-13T11:12:48;9.15;;;2.42;;
71759;SDS011;59919;48.112;16.280;2023-02-13T11:15:25;3.65;;;2.22;;
71759;SDS011;59919;48.112;16.280;2023-02-13T11:17:58;3.38;;;2.20;;
71759;SDS011;59919;48.112;16.280;2023-02-13T11:20:40;3.10;;;1.92;;
71759;SDS011;59919;48.112;16.280;2023-02-13T11:26:03;4.10;;;2.10;;
71759;SDS011;59919;48.112;16.280;2023-02-13T11:28:50;3.28;;;2.05;;
71759;SDS011;59919;48.112;16.280;2023-02-13T11:31:26;4.63;;;2.10;;
71759;SDS011;59919;48.112;16.280;2023-02-13T11:39:43;4.03;;;1.93;;
71759;SDS011;59919;48.112;16.280;2023-02-13T11:42:19;3.25;;;1.80;;
71759;SDS011;59919;48.112;16.280;2023-02-13T11:47:53;3.05;;;1.90;;
71759;SDS011;59919;48.112;16.280;2023-02-13T11:50:30;4.97;;;2.00;;
71759;SDS011;59919;48.112;16.280;2023-02-13T11:53:05;2.53;;;1.73;;
71759;SDS011;59919;48.112;16.280;2023-02-13T11:55:39;2.53;;;1.80;;
71759;SDS011;59919;48.112;16.280;2023-02-13T12:00:43;2.60;;;1.65;;
71759;SDS011;59919;48.112;16.280;2023-02-13T12:06:34;3.05;;;1.70;;
71759;SDS011;59919;48.112;16.280;2023-02-13T12:08:46;2.75;;;1.75;;
71759;SDS011;59919;48.112;16.280;2023-02-13T12:13:53;2.17;;;1.98;;
71759;SDS011;59919;48.112;16.280;2023-02-13T12:19:11;2.35;;;1.75;;
71759;SDS011;59919;48.112;16.280;2023-02-13T12:36:06;2.08;;;1.70;;
71759;SDS011;59919;48.112;16.280;2023-02-13T12:39:06;3.13;;;2.00;;
71759;SDS011;59919;48.112;16.280;2023-02-13T12:41:51;5.43;;;2.00;;
71759;SDS011;59919;48.112;16.280;2023-02-13T12:47:36;1.67;;;1.38;;
71759;SDS011;59919;48.112;16.280;2023-02-13T12:53:20;2.67;;;1.92;;
71759;SDS011;59919;48.112;16.280;2023-02-13T13:22:48;5.15;;;2.13;;
71759;SDS011;59919;48.112;16.280;2023-02-13T13:28:03;3.13;;;1.92;;
71759;SDS011;59919;48.112;16.280;2023-02-13T13:30:41;3.55;;;2.22;;
71759;SDS011;59919;48.112;16.280;2023-02-13T13:33:17;10.55;;;2.33;;
71759;SDS011;59919;48.112;16.280;2023-02-13T13:36:10;2.67;;;1.80;;
71759;SDS011;59919;48.112;16.280;2023-02-13T13:38:59;3.30;;;1.90;;
71759;SDS011;59919;48.112;16.280;2023-02-13T13:47:47;2.60;;;1.45;;
71759;SDS011;59919;48.112;16.280;2023-02-13T13:50:27;3.22;;;2.00;;
71759;SDS011;59919;48.112;16.280;2023-02-13T14:01:25;5.40;;;1.63;;
71759;SDS011;59919;48.112;16.280;2023-02-13T14:04:02;4.30;;;1.92;;
71759;SDS011;59919;48.112;16.280;2023-02-13T14:11:56;3.35;;;1.48;;
71759;SDS011;59919;48.112;16.280;2023-02-13T14:14:47;3.30;;;2.00;;
71759;SDS011;59919;48.112;16.280;2023-02-13T14:22:55;3.70;;;1.75;;
71759;SDS011;59919;48.112;16.280;2023-02-13T14:25:35;5.78;;;2.10;;
71759;SDS011;59919;48.112;16.280;2023-02-13T14:28:14;3.05;;;1.88;;
71759;SDS011;59919;48.112;16.280;2023-02-13T14:31:03;7.03;;;2.00;;
71759;SDS011;59919;48.112;16.280;2023-02-13T14:33:36;3.78;;;1.63;;
71759;SDS011;59919;48.112;16.280;2023-02-13T14:36:08;2.22;;;1.73;;
71759;SDS011;59919;48.112;16.280;2023-02-13T14:38:58;3.28;;;1.60;;
71759;SDS011;59919;48.112;16.280;2023-02-13T14:47:02;4.45;;;1.90;;
71759;SDS011;59919;48.112;16.280;2023-02-13T14:49:46;4.93;;;1.80;;
71759;SDS011;59919;48.112;16.280;2023-02-13T14:52:38;4.97;;;1.83;;
71759;SDS011;59919;48.112;16.280;2023-02-13T14:55:19;7.20;;;1.80;;
71759;SDS011;59919;48.112;16.280;2023-02-13T14:58:10;3.53;;;1.80;;
71759;SDS011;59919;48.112;16.280;2023-02-13T15:04:06;3.45;;;2.00;;
71759;SDS011;59919;48.112;16.280;2023-02-13T15:06:44;3.03;;;1.70;;
71759;SDS011;59919;48.112;16.280;2023-02-13T15:09:27;3.58;;;1.67;;
71759;SDS011;59919;48.112;16.280;2023-02-13T15:12:02;6.93;;;2.03;;
71759;SDS011;59919;48.112;16.280;2023-02-13T15:14:34;7.00;;;1.85;;
71759;SDS011;59919;48.112;16.280;2023-02-13T15:17:12;5.63;;;1.75;;
71759;SDS011;59919;48.112;16.280;2023-02-13T15:20:02;5.47;;;1.90;;
71759;SDS011;59919;48.112;16.280;2023-02-13T15:22:44;3.33;;;1.70;;
71759;SDS011;59919;48.112;16.280;2023-02-13T15:25:24;4.35;;;1.98;;
71759;SDS011;59919;48.112;16.280;2023-02-13T15:27:59;6.35;;;1.90;;
71759;SDS011;59919;48.112;16.280;2023-02-13T15:30:34;4.03;;;1.60;;
71759;SDS011;59919;48.112;16.280;2023-02-13T15:33:17;4.22;;;2.00;;
71759;SDS011;59919;48.112;16.280;2023-02-13T15:35:53;4.68;;;1.90;;
71759;SDS011;59919;48.112;16.280;2023-02-13T15:38:34;2.97;;;1.70;;
71759;SDS011;59919;48.112;16.280;2023-02-13T15:41:26;2.10;;;1.50;;
71759;SDS011;59919;48.112;16.280;2023-02-13T15:44:03;4.38;;;1.88;;
71759;SDS011;59919;48.112;16.280;2023-02-13T15:46:36;4.60;;;1.77;;
71759;SDS011;59919;48.112;16.280;2023-02-13T15:49:13;4.07;;;1.70;;
71759;SDS011;59919;48.112;16.280;2023-02-13T15:51:46;3.80;;;1.80;;
71759;SDS011;59919;48.112;16.280;2023-02-13T15:56:59;4.05;;;1.73;;
71759;SDS011;59919;48.112;16.280;2023-02-13T15:59:36;4.30;;;1.90;;
71759;SDS011;59919;48.112;16.280;2023-02-13T16:02:19;4.85;;;1.70;;
71759;SDS011;59919;48.112;16.280;2023-02-13T16:04:53;2.45;;;2.05;;
71759;SDS011;59919;48.112;16.280;2023-02-13T16:07:25;3.53;;;1.90;;
71759;SDS011;59919;48.112;16.280;2023-02-13T16:10:42;5.35;;;1.85;;
71759;SDS011;59919;48.112;16.280;2023-02-13T16:12:55;3.15;;;1.77;;
71759;SDS011;59919;48.112;16.280;2023-02-13T16:15:29;2.60;;;2.05;;
71759;SDS011;59919;48.112;16.280;2023-02-13T16:18:02;2.40;;;2.05;;
71759;SDS011;59919;48.112;16.280;2023-02-13T16:20:35;2.13;;;1.73;;
71759;SDS011;59919;48.112;16.280;2023-02-13T16:23:14;3.33;;;2.20;;
71759;SDS011;59919;48.112;16.280;2023-02-13T16:25:49;3.13;;;1.88;;
71759;SDS011;59919;48.112;16.280;2023-02-13T16:28:21;2.72;;;1.70;;
71759;SDS011;59919;48.112;16.280;2023-02-13T16:30:59;3.42;;;2.10;;
71759;SDS011;59919;48.112;16.280;2023-02-13T16:38:44;3.33;;;1.80;;
71759;SDS011;59919;48.112;16.280;2023-02-13T16:43:55;2.35;;;1.80;;
71759;SDS011;59919;48.112;16.280;2023-02-13T16:49:33;3.92;;;1.60;;
71759;SDS011;59919;48.112;16.280;2023-02-13T16:52:09;3.13;;;1.70;;
71759;SDS011;59919;48.112;16.280;2023-02-13T16:54:51;6.22;;;1.98;;
71759;SDS011;59919;48.112;16.280;2023-02-13T16:57:26;2.42;;;1.95;;
71759;SDS011;59919;48.112;16.280;2023-02-13T17:00:17;3.88;;;2.17;;
71759;SDS011;59919;48.112;16.280;2023-02-13T17:02:51;5.38;;;2.20;;
71759;SDS011;59919;48.112;16.280;2023-02-13T17:05:26;4.85;;;2.00;;
71759;SDS011;59919;48.112;16.280;2023-02-13T17:08:01;6.55;;;1.90;;
71759;SDS011;59919;48.112;16.280;2023-02-13T17:10:33;5.43;;;2.45;;
71759;SDS011;59919;48.112;16.280;2023-02-13T17:13:15;3.65;;;2.22;;
71759;SDS011;59919;48.112;16.280;2023-02-13T17:15:48;5.18;;;2.13;;
71759;SDS011;59919;48.112;16.280;2023-02-13T17:18:21;2.70;;;2.47;;
71759;SDS011;59919;48.112;16.280;2023-02-13T17:20:52;2.65;;;1.83;;
71759;SDS011;59919;48.112;16.280;2023-02-13T17:23:26;3.70;;;2.03;;
71759;SDS011;59919;48.112;16.280;2023-02-13T17:25:58;5.45;;;1.80;;
71759;SDS011;59919;48.112;16.280;2023-02-13T17:28:29;3.33;;;1.90;;
71759;SDS011;59919;48.112;16.280;2023-02-13T17:31:02;4.93;;;1.67;;
71759;SDS011;59919;48.112;16.280;2023-02-13T17:33:39;2.38;;;1.60;;
71759;SDS011;59919;48.112;16.280;2023-02-13T17:36:11;3.78;;;1.70;;
71759;SDS011;59919;48.112;16.280;2023-02-13T17:38:43;8.73;;;1.85;;
71759;SDS011;59919;48.112;16.280;2023-02-13T17:41:14;4.45;;;2.13;;
71759;SDS011;59919;48.112;16.280;2023-02-13T17:43:48;9.77;;;1.73;;
71759;SDS011;59919;48.112;16.280;2023-02-13T17:46:19;2.78;;;1.52;;
71759;SDS011;59919;48.112;16.280;2023-02-13T17:48:53;5.38;;;1.67;;
71759;SDS011;59919;48.112;16.280;2023-02-13T17:51:24;8.57;;;1.88;;
71759;SDS011;59919;48.112;16.280;2023-02-13T17:53:55;6.25;;;2.78;;
71759;SDS011;59919;48.112;16.280;2023-02-13T17:56:27;5.72;;;1.80;;
71759;SDS011;59919;48.112;16.280;2023-02-13T17:58:58;4.03;;;2.00;;
71759;SDS011;59919;48.112;16.280;2023-02-13T18:01:29;4.03;;;1.90;;
71759;SDS011;59919;48.112;16.280;2023-02-13T18:04:05;2.70;;;1.83;;
71759;SDS011;59919;48.112;16.280;2023-02-13T18:06:36;4.15;;;1.88;;
71759;SDS011;59919;48.112;16.280;2023-02-13T18:09:07;2.40;;;1.92;;
71759;SDS011;59919;48.112;16.280;2023-02-13T18:11:37;3.70;;;2.05;;
71759;SDS011;59919;48.112;16.280;2023-02-13T18:14:11;2.58;;;1.90;;
71759;SDS011;59919;48.112;16.280;2023-02-13T18:16:42;4.03;;;2.03;;
71759;SDS011;59919;48.112;16.280;2023-02-13T18:19:18;3.63;;;1.90;;
71759;SDS011;59919;48.112;16.280;2023-02-13T18:21:52;4.45;;;2.25;;
71759;SDS011;59919;48.112;16.280;2023-02-13T18:24:27;2.33;;;1.90;;
71759;SDS011;59919;48.112;16.280;2023-02-13T18:26:59;5.50;;;2.30;;
71759;SDS011;59919;48.112;16.280;2023-02-13T18:29:31;2.38;;;1.83;;
71759;SDS011;59919;48.112;16.280;2023-02-13T18:32:03;2.67;;;1.88;;
71759;SDS011;59919;48.112;16.280;2023-02-13T18:34:35;2.38;;;1.80;;
71759;SDS011;59919;48.112;16.280;2023-02-13T18:37:07;4.35;;;1.90;;
71759;SDS011;59919;48.112;16.280;2023-02-13T18:39:41;2.75;;;2.10;;
71759;SDS011;59919;48.112;16.280;2023-02-13T18:42:12;3.45;;;1.92;;
71759;SDS011;59919;48.112;16.280;2023-02-13T18:44:44;3.60;;;2.17;;
71759;SDS011;59919;48.112;16.280;2023-02-13T18:47:15;3.13;;;2.10;;
71759;SDS011;59919;48.112;16.280;2023-02-13T18:49:46;3.85;;;2.10;;
71759;SDS011;59919;48.112;16.280;2023-02-13T18:52:17;2.72;;;2.15;;
71759;SDS011;59919;48.112;16.280;2023-02-13T18:54:49;3.03;;;2.25;;
71759;SDS011;59919;48.112;16.280;2023-02-13T18:57:21;3.80;;;1.92;;